createdAt,value
2022-09-06T00:00:11.316Z,100.0
2022-09-06T00:02:07.801Z,100.0
2022-09-06T00:04:13.071Z,100.0
2022-09-06T00:08:07.448Z,100.0
2022-09-06T00:10:08.881Z,100.0
2022-09-06T00:12:07.193Z,100.0
2022-09-06T00:14:07.103Z,100.0
2022-09-06T00:16:09.292Z,100.0
2022-09-06T00:18:07.272Z,100.0
2022-09-06T00:20:08.621Z,100.0
2022-09-06T00:22:06.734Z,100.0
2022-09-06T00:24:06.606Z,100.0
2022-09-06T00:28:06.529Z,100.0
2022-09-06T00:30:07.103Z,100.0
2022-09-06T00:32:07.464Z,100.0
2022-09-06T00:34:05.901Z,100.0
2022-09-06T00:38:05.713Z,100.0
2022-09-06T00:40:07.320Z,100.0
2022-09-06T00:42:07.892Z,100.0
2022-09-06T00:44:05.558Z,100.0
2022-09-06T00:46:07.496Z,100.0
2022-09-06T00:50:06.749Z,100.0
2022-09-06T00:52:08.676Z,100.0
2022-09-06T00:54:06.974Z,100.0
2022-09-06T00:58:04.720Z,100.0
2022-09-06T01:02:08.225Z,100.0
2022-09-06T01:04:05.345Z,100.0
2022-09-06T01:10:22.063Z,100.0
2022-09-06T01:12:19.975Z,100.0
2022-09-06T01:14:19.193Z,100.0
2022-09-06T01:16:12.071Z,100.0
2022-09-06T01:18:16.279Z,100.0
2022-09-06T01:22:21.296Z,100.0
2022-09-06T01:24:24.641Z,100.0
2022-09-06T01:26:18.487Z,100.0
2022-09-06T01:28:22.716Z,100.0
2022-09-06T01:30:05.722Z,100.0
2022-09-06T01:32:12.184Z,100.0
2022-09-06T01:34:21.102Z,100.0
2022-09-06T01:38:04.202Z,100.0
2022-09-06T01:40:03.733Z,100.0
2022-09-06T01:42:07.073Z,100.0
2022-09-06T01:44:02.352Z,100.0
2022-09-06T01:46:10.982Z,100.0
2022-09-06T01:48:10.468Z,100.0
2022-09-06T01:50:15.313Z,100.0
2022-09-06T01:52:12.612Z,100.0
2022-09-06T01:54:14.751Z,100.0
2022-09-06T01:56:08.949Z,100.0
2022-09-06T02:00:07.410Z,100.0
2022-09-06T02:02:07.643Z,100.0
2022-09-06T02:06:06.413Z,100.0
2022-09-06T02:08:07.055Z,100.0
2022-09-06T02:10:10.395Z,100.0
2022-09-06T02:12:03.318Z,100.0
2022-09-06T02:14:05.779Z,100.0
2022-09-06T02:16:02.611Z,100.0
2022-09-06T02:18:04.579Z,100.0
2022-09-06T02:20:04.780Z,100.0
2022-09-06T02:22:03.694Z,100.0
2022-09-06T02:24:04.252Z,100.0
2022-09-06T02:26:04.107Z,100.0
2022-09-06T02:27:59.759Z,100.0
2022-09-06T02:30:01.971Z,100.0
2022-09-06T02:32:04.710Z,100.0
2022-09-06T02:34:00.575Z,100.0
2022-09-06T02:36:03.851Z,100.0
2022-09-06T02:37:58.920Z,100.0
2022-09-06T02:39:59.286Z,100.0
2022-09-06T02:42:00.610Z,100.0
2022-09-06T02:43:58.562Z,100.0
2022-09-06T02:45:58.256Z,100.0
2022-09-06T02:49:58.185Z,100.0
2022-09-06T02:51:58.050Z,100.0
2022-09-06T02:53:57.693Z,100.0
2022-09-06T02:55:57.638Z,100.0
2022-09-06T02:57:57.712Z,100.0
2022-09-06T02:59:57.384Z,100.0
2022-09-06T03:01:57.329Z,100.0
2022-09-06T03:03:57.139Z,100.0
2022-09-06T03:07:57.214Z,100.0
2022-09-06T03:09:57.339Z,100.0
2022-09-06T03:11:56.699Z,100.0
2022-09-06T03:13:56.977Z,100.0
2022-09-06T03:15:58.661Z,100.0
2022-09-06T03:17:57.521Z,100.0
2022-09-06T03:21:56.747Z,100.0
2022-09-06T03:23:58.315Z,100.0
2022-09-06T03:25:56.912Z,100.0
2022-09-06T03:27:55.957Z,100.0
2022-09-06T03:29:55.645Z,100.0
2022-09-06T03:33:55.470Z,100.0
2022-09-06T03:35:57.874Z,100.0
2022-09-06T03:37:55.104Z,100.0
2022-09-06T03:39:55.467Z,100.0
2022-09-06T03:41:54.994Z,100.0
2022-09-06T03:43:54.881Z,100.0
2022-09-06T03:45:56.609Z,100.0
2022-09-06T03:47:54.449Z,100.0
2022-09-06T03:49:54.407Z,100.0
2022-09-06T03:51:54.578Z,100.0
2022-09-06T03:53:54.628Z,100.0
2022-09-06T03:55:57.015Z,100.0
2022-09-06T03:57:53.906Z,100.0
2022-09-06T03:59:53.731Z,100.0
2022-09-06T04:03:53.321Z,100.0
2022-09-06T04:05:53.214Z,100.0
2022-09-06T04:07:53.120Z,100.0
2022-09-06T04:09:53.279Z,100.0
2022-09-06T04:11:52.882Z,100.0
2022-09-06T04:13:52.995Z,100.0
2022-09-06T04:17:52.912Z,100.0
2022-09-06T04:19:52.894Z,100.0
2022-09-06T04:21:52.889Z,100.0
2022-09-06T04:25:53.998Z,100.0
2022-09-06T04:27:51.661Z,100.0
2022-09-06T04:29:51.551Z,100.0
2022-09-06T04:31:51.490Z,100.0
2022-09-06T04:33:51.266Z,100.0
2022-09-06T04:37:50.996Z,100.0
2022-09-06T04:41:50.667Z,100.0
2022-09-06T04:43:50.521Z,100.0
2022-09-06T04:45:50.751Z,100.0
2022-09-06T04:47:50.610Z,100.0
2022-09-06T04:49:50.221Z,100.0
2022-09-06T04:51:49.827Z,100.0
2022-09-06T04:53:50.084Z,100.0
2022-09-06T04:55:49.664Z,100.0
2022-09-06T04:57:51.258Z,100.0
2022-09-06T04:59:49.279Z,100.0
2022-09-06T05:01:49.417Z,100.0
2022-09-06T05:03:49.022Z,100.0
2022-09-06T05:05:48.846Z,100.0
2022-09-06T05:07:51.527Z,100.0
2022-09-06T05:09:48.771Z,100.0
2022-09-06T05:11:48.617Z,100.0
2022-09-06T05:13:49.431Z,100.0
2022-09-06T05:15:48.593Z,100.0
2022-09-06T05:17:48.729Z,100.0
2022-09-06T05:19:48.442Z,100.0
2022-09-06T05:21:49.819Z,100.0
2022-09-06T05:23:48.444Z,100.0
2022-09-06T05:25:48.072Z,100.0
2022-09-06T05:27:47.429Z,100.0
2022-09-06T05:29:47.082Z,100.0
2022-09-06T05:31:47.001Z,100.0
2022-09-06T05:37:46.606Z,100.0
2022-09-06T05:39:46.453Z,100.0
2022-09-06T05:41:46.363Z,100.0
2022-09-06T05:43:46.254Z,100.0
2022-09-06T05:45:46.009Z,100.0
2022-09-06T05:47:45.905Z,100.0
2022-09-06T05:51:49.935Z,100.0
2022-09-06T05:53:45.669Z,100.0
2022-09-06T05:55:45.355Z,100.0
2022-09-06T05:57:45.091Z,100.0
2022-09-06T05:59:44.948Z,100.0
2022-09-06T06:01:47.516Z,100.0
2022-09-06T06:03:50.714Z,100.0
2022-09-06T06:05:46.390Z,100.0
2022-09-06T06:07:44.878Z,100.0
2022-09-06T06:09:44.555Z,100.0
2022-09-06T06:11:44.877Z,100.0
2022-09-06T06:13:44.641Z,100.0
2022-09-06T06:15:44.525Z,100.0
2022-09-06T06:17:44.570Z,100.0
2022-09-06T06:19:44.218Z,100.0
2022-09-06T06:21:43.704Z,100.0
2022-09-06T06:23:45.465Z,100.0
2022-09-06T06:25:43.397Z,100.0
2022-09-06T06:27:43.357Z,100.0
2022-09-06T06:29:43.271Z,100.0
2022-09-06T06:33:43.343Z,100.0
2022-09-06T06:35:56.788Z,100.0
2022-09-06T06:37:43.654Z,100.0
2022-09-06T06:39:42.719Z,100.0
2022-09-06T06:41:42.799Z,100.0
2022-09-06T06:43:43.272Z,100.0
2022-09-06T06:45:42.279Z,100.0
2022-09-06T06:47:42.107Z,100.0
2022-09-06T06:49:42.042Z,100.0
2022-09-06T06:51:41.906Z,100.0
2022-09-06T06:53:42.586Z,100.0
2022-09-06T06:55:47.455Z,100.0
2022-09-06T06:57:41.508Z,100.0
2022-09-06T06:59:41.425Z,100.0
2022-09-06T07:01:41.378Z,100.0
2022-09-06T07:03:41.336Z,100.0
2022-09-06T07:06:11.102Z,100.0
2022-09-06T07:07:41.603Z,100.0
2022-09-06T07:11:41.349Z,100.0
2022-09-06T07:13:41.512Z,100.0
2022-09-06T07:15:41.179Z,100.0
2022-09-06T07:17:40.921Z,100.0
2022-09-06T07:21:40.447Z,100.0
2022-09-06T07:24:06.830Z,100.0
2022-09-06T07:25:39.988Z,100.0
2022-09-06T07:27:48.509Z,100.0
2022-09-06T07:29:39.723Z,100.0
2022-09-06T07:33:40.360Z,100.0
2022-09-06T07:35:39.390Z,100.0
2022-09-06T07:37:39.357Z,100.0
2022-09-06T07:39:40.371Z,100.0
2022-09-06T07:41:39.225Z,100.0
2022-09-06T07:43:39.337Z,100.0
2022-09-06T07:45:39.058Z,100.0
2022-09-06T07:47:58.630Z,100.0
2022-09-06T07:49:39.166Z,100.0
2022-09-06T07:51:39.021Z,100.0
2022-09-06T07:53:40.866Z,100.0
2022-09-06T07:55:38.845Z,100.0
2022-09-06T07:59:42.800Z,100.0
2022-09-06T08:01:39.444Z,100.0
2022-09-06T08:03:38.576Z,100.0
2022-09-06T08:06:09.158Z,100.0
2022-09-06T08:07:38.665Z,100.0
2022-09-06T08:09:38.352Z,100.0
2022-09-06T08:11:38.934Z,100.0
2022-09-06T08:13:38.320Z,100.0
2022-09-06T08:15:41.567Z,100.0
2022-09-06T08:17:38.217Z,100.0
2022-09-06T08:19:38.198Z,100.0
2022-09-06T08:21:38.621Z,100.0
2022-09-06T08:23:39.015Z,100.0
2022-09-06T08:25:38.056Z,100.0
2022-09-06T08:27:38.072Z,100.0
2022-09-06T08:31:39.970Z,100.0
2022-09-06T08:33:39.049Z,100.0
2022-09-06T08:35:37.907Z,100.0
2022-09-06T08:37:38.090Z,100.0
2022-09-06T08:39:37.944Z,100.0
2022-09-06T08:41:47.506Z,100.0
2022-09-06T08:45:40.437Z,100.0
2022-09-06T08:47:38.142Z,100.0
2022-09-06T08:49:41.556Z,100.0
2022-09-06T08:51:52.884Z,100.0
2022-09-06T08:53:43.517Z,100.0
2022-09-06T08:55:43.686Z,100.0
2022-09-06T08:57:54.299Z,100.0
2022-09-06T08:59:40.082Z,100.0
2022-09-06T09:01:49.699Z,100.0
2022-09-06T09:03:41.623Z,100.0
2022-09-06T09:05:39.807Z,100.0
2022-09-06T09:11:41.823Z,100.0
2022-09-06T09:15:40.399Z,100.0
2022-09-06T09:17:38.943Z,100.0
2022-09-06T09:21:39.489Z,100.0
2022-09-06T09:23:38.677Z,100.0
2022-09-06T09:25:38.968Z,100.0
2022-09-06T09:27:39.032Z,100.0
2022-09-06T09:31:40.289Z,100.0
2022-09-06T09:33:38.710Z,100.0
2022-09-06T09:35:41.165Z,100.0
2022-09-06T09:37:46.706Z,100.0
2022-09-06T09:39:39.609Z,100.0
2022-09-06T09:41:42.076Z,100.0
2022-09-06T09:43:41.370Z,100.0
2022-09-06T09:49:38.544Z,100.0
2022-09-06T09:51:39.721Z,100.0
2022-09-06T09:53:49.553Z,100.0
2022-09-06T09:55:40.590Z,100.0
2022-09-06T09:57:44.794Z,100.0
2022-09-06T09:59:42.648Z,100.0
2022-09-06T10:01:39.195Z,100.0
2022-09-06T10:05:39.943Z,100.0
2022-09-06T10:07:43.432Z,100.0
2022-09-06T10:11:48.553Z,100.0
2022-09-06T10:13:41.893Z,100.0
2022-09-06T10:15:40.264Z,100.0
2022-09-06T10:19:42.018Z,100.0
2022-09-06T10:28:10.355Z,100.0
2022-09-06T10:29:46.988Z,100.0
2022-09-06T10:31:55.335Z,100.0
2022-09-06T10:33:57.687Z,100.0
2022-09-06T10:35:40.968Z,100.0
2022-09-06T10:37:47.311Z,100.0
2022-09-06T10:39:48.665Z,100.0
2022-09-06T10:45:55.179Z,100.0
2022-09-06T10:47:54.808Z,100.0
2022-09-06T10:49:44.688Z,100.0
2022-09-06T10:53:46.364Z,100.0
2022-09-06T10:55:48.027Z,100.0
2022-09-06T10:58:16.190Z,100.0
2022-09-06T11:01:48.632Z,100.0
2022-09-06T11:04:02.121Z,100.0
2022-09-06T11:05:48.800Z,100.0
2022-09-06T11:09:46.328Z,100.0
2022-09-06T11:11:50.439Z,100.0
2022-09-06T11:13:42.606Z,100.0
2022-09-06T11:15:47.906Z,100.0
2022-09-06T11:17:48.050Z,100.0
2022-09-06T11:19:48.930Z,100.0
2022-09-06T11:27:47.456Z,100.0
2022-09-06T11:29:46.974Z,100.0
2022-09-06T11:32:17.630Z,100.0
2022-09-06T11:33:43.902Z,100.0
2022-09-06T11:35:44.351Z,100.0
2022-09-06T11:37:44.266Z,100.0
2022-09-06T11:41:44.462Z,100.0
2022-09-06T11:43:47.330Z,100.0
2022-09-06T11:45:48.229Z,100.0
2022-09-06T11:47:47.126Z,100.0
2022-09-06T11:49:44.979Z,100.0
2022-09-06T11:51:46.221Z,100.0
2022-09-06T11:54:03.462Z,100.0
2022-09-06T11:59:56.620Z,100.0
2022-09-06T12:01:59.301Z,100.0
2022-09-06T12:06:06.602Z,100.0
2022-09-06T12:08:06.695Z,100.0
2022-09-06T12:09:46.951Z,100.0
2022-09-06T12:13:53.917Z,94.1
2022-09-06T12:15:53.515Z,95.7
2022-09-06T12:17:47.444Z,96.6
2022-09-06T12:19:50.837Z,91.7
2022-09-06T12:21:51.199Z,97.2
2022-09-06T12:23:47.895Z,92.3
2022-09-06T12:25:54.273Z,92.4
2022-09-06T12:27:52.675Z,86.9
2022-09-06T12:29:53.986Z,94.1
2022-09-06T12:31:52.027Z,93.8
2022-09-06T12:33:49.173Z,89.8
2022-09-06T12:35:57.629Z,89.2
2022-09-06T12:37:53.634Z,87.6
2022-09-06T12:41:54.106Z,90.9
2022-09-06T12:43:49.937Z,91.4
2022-09-06T12:45:51.684Z,91.5
2022-09-06T12:51:50.595Z,81.2
2022-09-06T12:53:50.950Z,84.8
2022-09-06T12:56:03.336Z,82.3
2022-09-06T12:57:53.571Z,79.0
2022-09-06T12:59:53.235Z,76.1
2022-09-06T13:01:57.701Z,80.2
2022-09-06T13:03:57.735Z,78.2
2022-09-06T13:07:54.421Z,74.2
2022-09-06T13:11:58.753Z,74.6
2022-09-06T13:13:54.136Z,73.9
2022-09-06T13:15:55.092Z,75.3
2022-09-06T13:18:04.685Z,75.5
2022-09-06T13:21:53.539Z,74.6
2022-09-06T13:23:53.638Z,74.3
2022-09-06T13:25:54.999Z,73.6
2022-09-06T13:27:57.302Z,74.5
2022-09-06T13:29:56.292Z,74.0
2022-09-06T13:31:56.133Z,73.8
2022-09-06T13:33:56.167Z,76.5
2022-09-06T13:36:07.382Z,79.9
2022-09-06T13:38:14.470Z,68.0
2022-09-06T13:39:56.318Z,71.1
2022-09-06T13:41:59.287Z,69.1
2022-09-06T13:43:58.429Z,71.2
2022-09-06T13:46:05.405Z,64.9
2022-09-06T13:48:07.872Z,67.5
2022-09-06T13:51:59.440Z,68.7
2022-09-06T13:54:06.830Z,68.2
2022-09-06T13:55:58.456Z,68.7
2022-09-06T13:57:56.845Z,64.1
2022-09-06T13:59:57.013Z,66.9
2022-09-06T14:03:59.014Z,66.6
2022-09-06T14:05:59.235Z,69.2
2022-09-06T14:07:57.906Z,67.6
2022-09-06T14:09:59.946Z,61.1
2022-09-06T14:11:58.815Z,60.7
2022-09-06T14:13:58.991Z,61.8
2022-09-06T14:15:59.288Z,59.4
2022-09-06T14:17:59.109Z,59.6
2022-09-06T14:19:59.484Z,60.2
2022-09-06T14:21:59.487Z,59.7
2022-09-06T14:24:04.117Z,61.0
2022-09-06T14:26:01.745Z,64.8
2022-09-06T14:32:00.914Z,60.9
2022-09-06T14:36:04.279Z,57.0
2022-09-06T14:38:01.174Z,60.9
2022-09-06T14:40:01.770Z,56.8
2022-09-06T14:46:04.407Z,62.9
2022-09-06T14:50:02.864Z,71.6
2022-09-06T14:52:02.944Z,71.7
2022-09-06T14:54:06.001Z,67.9
2022-09-06T14:56:04.580Z,67.9
2022-09-06T14:58:03.417Z,70.1
2022-09-06T15:04:06.616Z,65.9
2022-09-06T15:06:05.340Z,63.4
2022-09-06T15:08:05.216Z,69.4
2022-09-06T15:10:05.648Z,72.8
2022-09-06T15:12:05.190Z,77.6
2022-09-06T15:14:08.091Z,74.1
2022-09-06T15:16:08.272Z,73.3
2022-09-06T15:18:05.827Z,75.5
2022-09-06T15:20:06.500Z,74.0
2022-09-06T15:22:06.141Z,74.2
2022-09-06T15:24:11.037Z,72.7
2022-09-06T15:28:06.481Z,77.0
2022-09-06T15:30:07.309Z,77.7
2022-09-06T15:32:06.736Z,76.5
2022-09-06T15:34:08.029Z,82.8
2022-09-06T15:36:09.150Z,87.1
2022-09-06T15:38:07.654Z,92.3
2022-09-06T15:40:08.566Z,93.9
2022-09-06T15:42:07.998Z,92.4
2022-09-06T15:44:09.627Z,93.5
2022-09-06T15:48:08.435Z,95.5
2022-09-06T15:52:09.103Z,85.1
2022-09-06T15:54:10.960Z,78.0
2022-09-06T15:58:09.062Z,89.0
2022-09-06T16:02:09.962Z,82.6
2022-09-06T16:04:09.528Z,80.4
2022-09-06T16:06:28.452Z,81.4
2022-09-06T16:12:10.959Z,78.1
2022-09-06T16:14:12.741Z,80.7
2022-09-06T16:18:11.207Z,79.3
2022-09-06T16:20:11.365Z,78.3
2022-09-06T16:24:12.832Z,81.6
2022-09-06T16:26:11.858Z,79.2
2022-09-06T16:30:12.328Z,79.2
2022-09-06T16:32:11.954Z,79.8
2022-09-06T16:34:13.384Z,81.4
2022-09-06T16:36:12.955Z,81.4
2022-09-06T16:38:12.632Z,82.3
2022-09-06T16:40:12.561Z,87.6
2022-09-06T16:42:12.709Z,90.5
2022-09-06T16:44:16.589Z,99.3
2022-09-06T16:46:12.918Z,100.0
2022-09-06T16:48:12.797Z,100.0
2022-09-06T16:50:12.976Z,100.0
2022-09-06T16:52:13.482Z,100.0
2022-09-06T16:54:14.376Z,99.5
2022-09-06T16:56:15.585Z,97.5
2022-09-06T16:58:13.628Z,100.0
2022-09-06T17:00:15.091Z,100.0
2022-09-06T17:02:14.003Z,100.0
2022-09-06T17:06:14.844Z,100.0
2022-09-06T17:08:14.235Z,100.0
2022-09-06T17:10:14.266Z,100.0
2022-09-06T17:18:15.465Z,100.0
2022-09-06T17:20:19.473Z,100.0
2022-09-06T17:22:15.307Z,100.0
2022-09-06T17:24:15.565Z,100.0
2022-09-06T17:26:16.134Z,100.0
2022-09-06T17:30:16.179Z,100.0
2022-09-06T17:32:15.714Z,100.0
2022-09-06T17:34:15.960Z,100.0
2022-09-06T17:38:16.183Z,100.0
2022-09-06T17:40:16.156Z,100.0
2022-09-06T17:46:16.469Z,100.0
2022-09-06T17:48:17.013Z,100.0
2022-09-06T17:52:16.660Z,100.0
2022-09-06T17:54:18.097Z,100.0
2022-09-06T17:56:17.957Z,100.0
2022-09-06T17:58:17.598Z,100.0
2022-09-06T18:00:17.085Z,100.0
2022-09-06T18:02:17.061Z,100.0
2022-09-06T18:04:18.413Z,100.0
2022-09-06T18:08:17.186Z,100.0
2022-09-06T18:10:17.946Z,100.0
2022-09-06T18:12:18.526Z,100.0
2022-09-06T18:14:19.728Z,100.0
2022-09-06T18:20:17.491Z,100.0
2022-09-06T18:22:17.693Z,100.0
2022-09-06T18:24:18.240Z,100.0
2022-09-06T18:26:17.599Z,100.0
2022-09-06T18:28:18.197Z,100.0
2022-09-06T18:30:18.052Z,100.0
2022-09-06T18:32:18.337Z,100.0
2022-09-06T18:34:18.341Z,100.0
2022-09-06T18:36:18.668Z,100.0
2022-09-06T18:38:18.268Z,100.0
2022-09-06T18:40:18.018Z,100.0
2022-09-06T18:42:17.986Z,100.0
2022-09-06T18:44:18.833Z,100.0
2022-09-06T18:48:18.791Z,100.0
2022-09-06T18:50:18.122Z,100.0
2022-09-06T18:52:19.408Z,100.0
2022-09-06T18:56:19.192Z,100.0
2022-09-06T18:58:18.328Z,100.0
2022-09-06T19:00:18.102Z,100.0
2022-09-06T19:02:18.217Z,100.0
2022-09-06T19:04:17.965Z,100.0
2022-09-06T19:06:19.944Z,100.0
2022-09-06T19:08:18.178Z,100.0
2022-09-06T19:12:17.989Z,100.0
2022-09-06T19:14:18.940Z,100.0
2022-09-06T19:18:19.133Z,100.0
2022-09-06T19:20:18.065Z,100.0
2022-09-06T19:22:18.054Z,100.0
2022-09-06T19:24:21.551Z,100.0
2022-09-06T19:28:17.924Z,100.0
2022-09-06T19:30:18.986Z,100.0
2022-09-06T19:32:21.187Z,100.0
2022-09-06T19:34:17.981Z,100.0
2022-09-06T19:36:19.797Z,100.0
2022-09-06T19:38:18.145Z,100.0
2022-09-06T19:42:18.233Z,100.0
2022-09-06T19:46:18.883Z,100.0
2022-09-06T19:50:18.069Z,100.0
2022-09-06T19:52:17.730Z,100.0
2022-09-06T19:56:19.910Z,100.0
2022-09-06T19:58:18.570Z,100.0
2022-09-06T20:00:17.880Z,100.0
2022-09-06T20:02:17.762Z,100.0
2022-09-06T20:06:18.093Z,100.0
2022-09-06T20:08:17.473Z,100.0
2022-09-06T20:12:17.423Z,100.0
2022-09-06T20:16:20.597Z,100.0
2022-09-06T20:18:19.488Z,100.0
2022-09-06T20:20:17.490Z,100.0
2022-09-06T20:24:17.346Z,100.0
2022-09-06T20:26:18.602Z,100.0
2022-09-06T20:30:17.615Z,100.0
2022-09-06T20:32:17.309Z,100.0
2022-09-06T20:34:17.669Z,100.0
2022-09-06T20:36:17.959Z,100.0
2022-09-06T20:38:17.298Z,100.0
2022-09-06T20:40:17.409Z,100.0
2022-09-06T20:42:17.338Z,100.0
2022-09-06T20:48:18.647Z,100.0
2022-09-06T20:50:17.236Z,100.0
2022-09-06T20:52:17.250Z,100.0
2022-09-06T20:56:18.691Z,100.0
2022-09-06T20:58:17.089Z,100.0
2022-09-06T21:00:17.181Z,100.0
2022-09-06T21:02:17.218Z,100.0
2022-09-06T21:04:17.115Z,100.0
2022-09-06T21:10:17.102Z,100.0
2022-09-06T21:12:17.184Z,100.0
2022-09-06T21:14:17.314Z,100.0
2022-09-06T21:16:21.859Z,100.0
2022-09-06T21:18:17.073Z,100.0
2022-09-06T21:20:16.977Z,100.0
2022-09-06T21:24:17.426Z,100.0
2022-09-06T21:26:17.244Z,100.0
2022-09-06T21:28:17.384Z,100.0
2022-09-06T21:30:17.837Z,100.0
2022-09-06T21:32:17.055Z,100.0
2022-09-06T21:36:18.695Z,100.0
2022-09-06T21:38:17.210Z,100.0
2022-09-06T21:40:17.042Z,100.0
2022-09-06T21:42:17.550Z,100.0
2022-09-06T21:44:16.934Z,100.0
2022-09-06T21:46:18.822Z,100.0
2022-09-06T21:48:17.821Z,100.0
2022-09-06T21:50:17.569Z,100.0
2022-09-06T21:52:17.048Z,100.0
2022-09-06T21:54:16.999Z,100.0
2022-09-06T21:56:18.626Z,100.0
2022-09-06T21:58:16.878Z,100.0
2022-09-06T22:00:16.946Z,100.0
2022-09-06T22:02:16.470Z,100.0
2022-09-06T22:04:16.262Z,100.0
2022-09-06T22:06:18.645Z,100.0
2022-09-06T22:08:17.228Z,100.0
2022-09-06T22:10:16.091Z,100.0
2022-09-06T22:12:15.802Z,100.0
2022-09-06T22:14:16.073Z,100.0
2022-09-06T22:16:17.767Z,100.0
2022-09-06T22:18:15.596Z,100.0
2022-09-06T22:20:16.143Z,100.0
2022-09-06T22:22:15.431Z,100.0
2022-09-06T22:24:15.446Z,100.0
2022-09-06T22:26:15.211Z,100.0
2022-09-06T22:28:15.120Z,100.0
2022-09-06T22:30:14.946Z,100.0
2022-09-06T22:32:15.129Z,100.0
2022-09-06T22:34:15.098Z,100.0
2022-09-06T22:36:15.005Z,100.0
2022-09-06T22:38:15.312Z,100.0
2022-09-06T22:40:15.196Z,100.0
2022-09-06T22:42:14.864Z,100.0
2022-09-06T22:44:14.902Z,100.0
2022-09-06T22:52:14.029Z,100.0
2022-09-06T22:54:13.827Z,100.0
2022-09-06T22:56:13.741Z,100.0
2022-09-06T23:00:14.120Z,100.0
2022-09-06T23:02:13.281Z,100.0
2022-09-06T23:04:13.372Z,100.0
2022-09-06T23:06:13.067Z,100.0
2022-09-06T23:08:13.676Z,100.0
2022-09-06T23:10:12.985Z,100.0
2022-09-06T23:12:12.706Z,100.0
2022-09-06T23:14:13.048Z,100.0
2022-09-06T23:16:14.901Z,100.0
2022-09-06T23:18:13.295Z,100.0
2022-09-06T23:20:13.171Z,100.0
2022-09-06T23:22:12.128Z,100.0
2022-09-06T23:24:12.118Z,100.0
2022-09-06T23:28:11.783Z,100.0
2022-09-06T23:30:11.796Z,100.0
2022-09-06T23:32:11.691Z,100.0
2022-09-06T23:34:12.101Z,100.0
2022-09-06T23:36:13.577Z,100.0
2022-09-06T23:38:11.454Z,100.0
2022-09-06T23:40:11.489Z,100.0
2022-09-06T23:46:12.526Z,100.0
2022-09-06T23:48:11.164Z,100.0
2022-09-06T23:50:10.688Z,100.0
2022-09-06T23:56:11.322Z,100.0
2022-09-06T23:58:10.790Z,100.0
